sensor_id;sensor_type;location;lat;lon;timestamp;P1;durP1;ratioP1;P2;durP2;ratioP2
55545;SDS011;44768;50.298;127.520;2022-08-19T00:02:37;11.20;;;2.13;;
55545;SDS011;44768;50.298;127.520;2022-08-19T00:07:41;8.18;;;1.60;;
55545;SDS011;44768;50.298;127.520;2022-08-19T00:12:43;8.90;;;1.40;;
55545;SDS011;44768;50.298;127.520;2022-08-19T00:17:44;5.30;;;1.15;;
55545;SDS011;44768;50.298;127.520;2022-08-19T00:22:46;5.45;;;1.40;;
55545;SDS011;44768;50.298;127.520;2022-08-19T00:27:49;10.57;;;1.50;;
55545;SDS011;44768;50.298;127.520;2022-08-19T00:32:50;10.00;;;1.02;;
55545;SDS011;44768;50.298;127.520;2022-08-19T00:37:52;12.82;;;1.38;;
55545;SDS011;44768;50.298;127.520;2022-08-19T00:42:53;5.82;;;1.15;;
55545;SDS011;44768;50.298;127.520;2022-08-19T00:47:54;5.40;;;0.75;;
55545;SDS011;44768;50.298;127.520;2022-08-19T00:52:55;5.20;;;1.25;;
55545;SDS011;44768;50.298;127.520;2022-08-19T00:57:58;12.55;;;1.60;;
55545;SDS011;44768;50.298;127.520;2022-08-19T01:03:01;7.93;;;1.33;;
55545;SDS011;44768;50.298;127.520;2022-08-19T01:08:04;8.23;;;1.38;;
55545;SDS011;44768;50.298;127.520;2022-08-19T01:13:06;8.20;;;1.30;;
55545;SDS011;44768;50.298;127.520;2022-08-19T01:18:09;9.52;;;1.10;;
55545;SDS011;44768;50.298;127.520;2022-08-19T01:23:13;4.65;;;1.00;;
55545;SDS011;44768;50.298;127.520;2022-08-19T01:28:19;5.95;;;1.15;;
55545;SDS011;44768;50.298;127.520;2022-08-19T01:33:21;3.55;;;0.90;;
55545;SDS011;44768;50.298;127.520;2022-08-19T01:38:24;1.92;;;1.10;;
55545;SDS011;44768;50.298;127.520;2022-08-19T01:43:25;6.40;;;1.10;;
55545;SDS011;44768;50.298;127.520;2022-08-19T01:48:27;2.83;;;1.30;;
55545;SDS011;44768;50.298;127.520;2022-08-19T01:53:31;14.20;;;1.00;;
55545;SDS011;44768;50.298;127.520;2022-08-19T01:58:43;3.45;;;1.00;;
55545;SDS011;44768;50.298;127.520;2022-08-19T02:03:47;8.82;;;1.30;;
55545;SDS011;44768;50.298;127.520;2022-08-19T02:08:49;3.13;;;0.90;;
55545;SDS011;44768;50.298;127.520;2022-08-19T02:13:50;10.90;;;1.02;;
55545;SDS011;44768;50.298;127.520;2022-08-19T02:18:52;1.58;;;0.80;;
55545;SDS011;44768;50.298;127.520;2022-08-19T02:23:53;2.85;;;0.90;;
55545;SDS011;44768;50.298;127.520;2022-08-19T02:28:54;5.53;;;0.93;;
55545;SDS011;44768;50.298;127.520;2022-08-19T02:39:26;1.80;;;0.98;;
55545;SDS011;44768;50.298;127.520;2022-08-19T02:44:28;9.20;;;1.45;;
55545;SDS011;44768;50.298;127.520;2022-08-19T02:49:30;6.40;;;1.08;;
55545;SDS011;44768;50.298;127.520;2022-08-19T02:54:32;10.05;;;1.25;;
55545;SDS011;44768;50.298;127.520;2022-08-19T02:59:33;1.17;;;0.75;;
55545;SDS011;44768;50.298;127.520;2022-08-19T03:04:35;7.68;;;0.93;;
55545;SDS011;44768;50.298;127.520;2022-08-19T03:09:39;6.13;;;0.73;;
55545;SDS011;44768;50.298;127.520;2022-08-19T03:14:40;2.25;;;0.82;;
55545;SDS011;44768;50.298;127.520;2022-08-19T03:19:41;5.97;;;0.90;;
55545;SDS011;44768;50.298;127.520;2022-08-19T03:24:43;2.88;;;0.80;;
55545;SDS011;44768;50.298;127.520;2022-08-19T03:29:44;4.85;;;0.93;;
55545;SDS011;44768;50.298;127.520;2022-08-19T03:34:46;5.85;;;1.00;;
55545;SDS011;44768;50.298;127.520;2022-08-19T03:39:47;6.45;;;0.90;;
55545;SDS011;44768;50.298;127.520;2022-08-19T03:44:48;2.30;;;0.95;;
55545;SDS011;44768;50.298;127.520;2022-08-19T03:49:49;7.63;;;1.10;;
55545;SDS011;44768;50.298;127.520;2022-08-19T03:54:51;3.95;;;0.95;;
55545;SDS011;44768;50.298;127.520;2022-08-19T03:59:52;5.25;;;1.00;;
55545;SDS011;44768;50.298;127.520;2022-08-19T04:04:53;4.45;;;1.38;;
55545;SDS011;44768;50.298;127.520;2022-08-19T04:09:56;9.63;;;1.02;;
55545;SDS011;44768;50.298;127.520;2022-08-19T04:14:57;3.65;;;0.80;;
55545;SDS011;44768;50.298;127.520;2022-08-19T04:19:59;3.13;;;1.00;;
55545;SDS011;44768;50.298;127.520;2022-08-19T04:25:01;2.78;;;0.70;;
55545;SDS011;44768;50.298;127.520;2022-08-19T04:30:04;1.95;;;0.90;;
55545;SDS011;44768;50.298;127.520;2022-08-19T04:35:06;4.93;;;0.90;;
55545;SDS011;44768;50.298;127.520;2022-08-19T04:40:07;2.55;;;0.95;;
55545;SDS011;44768;50.298;127.520;2022-08-19T04:45:27;4.95;;;0.85;;
55545;SDS011;44768;50.298;127.520;2022-08-19T04:50:28;4.47;;;0.75;;
55545;SDS011;44768;50.298;127.520;2022-08-19T04:55:29;2.47;;;0.77;;
55545;SDS011;44768;50.298;127.520;2022-08-19T05:00:30;2.92;;;0.82;;
55545;SDS011;44768;50.298;127.520;2022-08-19T05:05:32;3.72;;;0.80;;
55545;SDS011;44768;50.298;127.520;2022-08-19T05:10:36;5.00;;;0.65;;
55545;SDS011;44768;50.298;127.520;2022-08-19T05:15:37;1.98;;;0.63;;
55545;SDS011;44768;50.298;127.520;2022-08-19T05:20:38;6.43;;;0.90;;
55545;SDS011;44768;50.298;127.520;2022-08-19T05:25:58;6.43;;;1.00;;
55545;SDS011;44768;50.298;127.520;2022-08-19T05:30:59;3.65;;;0.70;;
55545;SDS011;44768;50.298;127.520;2022-08-19T05:36:01;3.53;;;0.75;;
55545;SDS011;44768;50.298;127.520;2022-08-19T05:41:06;7.80;;;1.00;;
55545;SDS011;44768;50.298;127.520;2022-08-19T05:46:15;4.57;;;0.70;;
55545;SDS011;44768;50.298;127.520;2022-08-19T05:51:16;8.98;;;1.00;;
55545;SDS011;44768;50.298;127.520;2022-08-19T05:56:18;6.05;;;0.85;;
55545;SDS011;44768;50.298;127.520;2022-08-19T06:01:19;6.07;;;1.13;;
55545;SDS011;44768;50.298;127.520;2022-08-19T06:06:21;5.53;;;1.00;;
55545;SDS011;44768;50.298;127.520;2022-08-19T06:11:25;4.53;;;0.85;;
55545;SDS011;44768;50.298;127.520;2022-08-19T06:16:33;5.90;;;0.90;;
55545;SDS011;44768;50.298;127.520;2022-08-19T06:21:36;5.20;;;1.02;;
55545;SDS011;44768;50.298;127.520;2022-08-19T06:26:39;6.07;;;1.15;;
55545;SDS011;44768;50.298;127.520;2022-08-19T06:31:42;5.82;;;1.40;;
55545;SDS011;44768;50.298;127.520;2022-08-19T06:36:45;5.47;;;1.23;;
55545;SDS011;44768;50.298;127.520;2022-08-19T06:41:47;5.80;;;1.00;;
55545;SDS011;44768;50.298;127.520;2022-08-19T06:46:49;5.28;;;0.98;;
55545;SDS011;44768;50.298;127.520;2022-08-19T06:51:50;2.85;;;0.98;;
55545;SDS011;44768;50.298;127.520;2022-08-19T06:56:52;3.25;;;0.85;;
55545;SDS011;44768;50.298;127.520;2022-08-19T07:01:54;3.97;;;0.90;;
55545;SDS011;44768;50.298;127.520;2022-08-19T07:07:06;4.43;;;0.95;;
55545;SDS011;44768;50.298;127.520;2022-08-19T07:12:11;6.63;;;0.80;;
55545;SDS011;44768;50.298;127.520;2022-08-19T07:17:14;1.25;;;0.80;;
55545;SDS011;44768;50.298;127.520;2022-08-19T07:22:15;2.03;;;0.77;;
55545;SDS011;44768;50.298;127.520;2022-08-19T07:27:17;7.45;;;1.27;;
55545;SDS011;44768;50.298;127.520;2022-08-19T07:32:19;5.70;;;0.85;;
55545;SDS011;44768;50.298;127.520;2022-08-19T07:37:20;10.73;;;1.65;;
55545;SDS011;44768;50.298;127.520;2022-08-19T07:42:22;10.98;;;1.70;;
55545;SDS011;44768;50.298;127.520;2022-08-19T07:47:23;14.52;;;2.13;;
55545;SDS011;44768;50.298;127.520;2022-08-19T07:52:24;8.27;;;0.95;;
55545;SDS011;44768;50.298;127.520;2022-08-19T07:57:25;3.97;;;1.30;;
55545;SDS011;44768;50.298;127.520;2022-08-19T08:02:26;5.70;;;1.00;;
55545;SDS011;44768;50.298;127.520;2022-08-19T08:07:27;14.57;;;2.10;;
55545;SDS011;44768;50.298;127.520;2022-08-19T08:12:47;9.68;;;1.63;;
55545;SDS011;44768;50.298;127.520;2022-08-19T08:17:50;8.65;;;1.15;;
55545;SDS011;44768;50.298;127.520;2022-08-19T08:22:51;11.77;;;1.23;;
55545;SDS011;44768;50.298;127.520;2022-08-19T08:28:10;5.65;;;1.48;;
55545;SDS011;44768;50.298;127.520;2022-08-19T08:33:12;9.13;;;1.70;;
55545;SDS011;44768;50.298;127.520;2022-08-19T08:38:13;8.30;;;2.20;;
55545;SDS011;44768;50.298;127.520;2022-08-19T08:53:46;8.00;;;1.85;;
55545;SDS011;44768;50.298;127.520;2022-08-19T08:59:03;10.52;;;1.63;;
55545;SDS011;44768;50.298;127.520;2022-08-19T09:04:08;17.33;;;2.00;;
55545;SDS011;44768;50.298;127.520;2022-08-19T09:09:14;17.20;;;1.90;;
55545;SDS011;44768;50.298;127.520;2022-08-19T09:14:28;4.30;;;1.10;;
55545;SDS011;44768;50.298;127.520;2022-08-19T09:19:32;14.00;;;1.73;;
55545;SDS011;44768;50.298;127.520;2022-08-19T09:24:34;8.80;;;1.83;;
55545;SDS011;44768;50.298;127.520;2022-08-19T09:29:36;13.80;;;1.60;;
55545;SDS011;44768;50.298;127.520;2022-08-19T09:34:37;15.43;;;2.78;;
55545;SDS011;44768;50.298;127.520;2022-08-19T09:39:39;17.55;;;2.80;;
55545;SDS011;44768;50.298;127.520;2022-08-19T09:44:41;14.95;;;2.38;;
55545;SDS011;44768;50.298;127.520;2022-08-19T09:49:43;10.05;;;1.85;;
55545;SDS011;44768;50.298;127.520;2022-08-19T09:54:44;12.25;;;1.80;;
55545;SDS011;44768;50.298;127.520;2022-08-19T09:59:45;19.67;;;3.22;;
55545;SDS011;44768;50.298;127.520;2022-08-19T10:04:46;23.13;;;2.28;;
55545;SDS011;44768;50.298;127.520;2022-08-19T10:10:07;15.20;;;2.35;;
55545;SDS011;44768;50.298;127.520;2022-08-19T10:15:11;13.05;;;3.40;;
55545;SDS011;44768;50.298;127.520;2022-08-19T10:20:14;16.15;;;3.20;;
55545;SDS011;44768;50.298;127.520;2022-08-19T10:25:15;21.85;;;3.65;;
55545;SDS011;44768;50.298;127.520;2022-08-19T10:30:17;19.63;;;3.60;;
55545;SDS011;44768;50.298;127.520;2022-08-19T10:35:20;24.80;;;6.68;;
55545;SDS011;44768;50.298;127.520;2022-08-19T10:45:25;22.48;;;4.40;;
55545;SDS011;44768;50.298;127.520;2022-08-19T10:50:27;25.70;;;5.80;;
55545;SDS011;44768;50.298;127.520;2022-08-19T10:55:47;49.95;;;12.27;;
55545;SDS011;44768;50.298;127.520;2022-08-19T11:01:06;47.45;;;7.72;;
55545;SDS011;44768;50.298;127.520;2022-08-19T11:11:08;44.05;;;6.95;;
55545;SDS011;44768;50.298;127.520;2022-08-19T11:16:11;60.95;;;8.40;;
55545;SDS011;44768;50.298;127.520;2022-08-19T11:21:22;48.95;;;6.45;;
55545;SDS011;44768;50.298;127.520;2022-08-19T11:26:23;50.50;;;7.20;;
55545;SDS011;44768;50.298;127.520;2022-08-19T11:31:30;32.47;;;5.47;;
55545;SDS011;44768;50.298;127.520;2022-08-19T11:36:32;34.85;;;6.38;;
55545;SDS011;44768;50.298;127.520;2022-08-19T11:41:34;41.25;;;7.80;;
55545;SDS011;44768;50.298;127.520;2022-08-19T11:46:36;53.42;;;10.45;;
55545;SDS011;44768;50.298;127.520;2022-08-19T11:51:38;47.20;;;8.85;;
55545;SDS011;44768;50.298;127.520;2022-08-19T11:56:40;59.95;;;10.45;;
55545;SDS011;44768;50.298;127.520;2022-08-19T12:01:41;41.85;;;9.02;;
55545;SDS011;44768;50.298;127.520;2022-08-19T12:06:43;50.80;;;9.05;;
55545;SDS011;44768;50.298;127.520;2022-08-19T12:11:44;55.42;;;10.30;;
55545;SDS011;44768;50.298;127.520;2022-08-19T12:16:46;46.60;;;10.02;;
55545;SDS011;44768;50.298;127.520;2022-08-19T12:21:49;50.20;;;9.98;;
55545;SDS011;44768;50.298;127.520;2022-08-19T12:26:50;103.70;;;12.50;;
55545;SDS011;44768;50.298;127.520;2022-08-19T12:31:52;78.72;;;12.70;;
55545;SDS011;44768;50.298;127.520;2022-08-19T12:36:54;74.43;;;10.70;;
55545;SDS011;44768;50.298;127.520;2022-08-19T12:41:56;74.65;;;10.43;;
55545;SDS011;44768;50.298;127.520;2022-08-19T12:46:58;76.60;;;10.38;;
55545;SDS011;44768;50.298;127.520;2022-08-19T12:52:00;72.05;;;9.57;;
55545;SDS011;44768;50.298;127.520;2022-08-19T12:57:07;57.95;;;7.65;;
55545;SDS011;44768;50.298;127.520;2022-08-19T13:02:10;40.95;;;5.60;;
55545;SDS011;44768;50.298;127.520;2022-08-19T13:12:12;56.47;;;8.00;;
55545;SDS011;44768;50.298;127.520;2022-08-19T13:17:14;55.38;;;8.73;;
55545;SDS011;44768;50.298;127.520;2022-08-19T13:22:16;21.90;;;5.30;;
55545;SDS011;44768;50.298;127.520;2022-08-19T13:32:18;22.88;;;7.40;;
55545;SDS011;44768;50.298;127.520;2022-08-19T13:37:38;17.63;;;7.00;;
55545;SDS011;44768;50.298;127.520;2022-08-19T13:42:42;30.45;;;8.10;;
55545;SDS011;44768;50.298;127.520;2022-08-19T13:47:51;37.40;;;7.93;;
55545;SDS011;44768;50.298;127.520;2022-08-19T13:52:53;34.92;;;8.18;;
55545;SDS011;44768;50.298;127.520;2022-08-19T13:57:55;28.85;;;7.45;;
55545;SDS011;44768;50.298;127.520;2022-08-19T14:02:56;32.35;;;7.82;;
55545;SDS011;44768;50.298;127.520;2022-08-19T14:07:58;49.72;;;9.27;;
55545;SDS011;44768;50.298;127.520;2022-08-19T14:13:00;46.47;;;8.68;;
55545;SDS011;44768;50.298;127.520;2022-08-19T14:18:02;26.77;;;6.72;;
55545;SDS011;44768;50.298;127.520;2022-08-19T14:23:05;51.28;;;8.57;;
55545;SDS011;44768;50.298;127.520;2022-08-19T14:28:06;37.53;;;7.13;;
55545;SDS011;44768;50.298;127.520;2022-08-19T14:33:08;29.67;;;6.88;;
55545;SDS011;44768;50.298;127.520;2022-08-19T14:38:14;13.68;;;3.55;;
55545;SDS011;44768;50.298;127.520;2022-08-19T14:43:16;11.68;;;2.83;;
55545;SDS011;44768;50.298;127.520;2022-08-19T14:48:18;15.82;;;3.17;;
55545;SDS011;44768;50.298;127.520;2022-08-19T14:53:20;23.27;;;2.90;;
55545;SDS011;44768;50.298;127.520;2022-08-19T14:58:22;6.70;;;1.95;;
55545;SDS011;44768;50.298;127.520;2022-08-19T15:03:23;8.90;;;1.90;;
55545;SDS011;44768;50.298;127.520;2022-08-19T15:13:26;5.00;;;1.50;;
55545;SDS011;44768;50.298;127.520;2022-08-19T15:18:28;5.60;;;1.60;;
55545;SDS011;44768;50.298;127.520;2022-08-19T15:23:31;11.50;;;1.40;;
55545;SDS011;44768;50.298;127.520;2022-08-19T15:28:32;7.32;;;1.55;;
55545;SDS011;44768;50.298;127.520;2022-08-19T15:33:34;8.15;;;2.00;;
55545;SDS011;44768;50.298;127.520;2022-08-19T15:38:39;5.60;;;1.73;;
55545;SDS011;44768;50.298;127.520;2022-08-19T15:43:42;4.70;;;1.50;;
55545;SDS011;44768;50.298;127.520;2022-08-19T15:48:44;8.30;;;1.45;;
55545;SDS011;44768;50.298;127.520;2022-08-19T15:53:45;5.80;;;2.33;;
55545;SDS011;44768;50.298;127.520;2022-08-19T15:58:46;9.77;;;1.38;;
55545;SDS011;44768;50.298;127.520;2022-08-19T16:04:07;1.95;;;1.08;;
55545;SDS011;44768;50.298;127.520;2022-08-19T16:09:27;2.25;;;1.27;;
55545;SDS011;44768;50.298;127.520;2022-08-19T16:14:30;3.95;;;0.90;;
55545;SDS011;44768;50.298;127.520;2022-08-19T16:19:32;3.78;;;1.55;;
55545;SDS011;44768;50.298;127.520;2022-08-19T16:24:36;3.72;;;1.00;;
55545;SDS011;44768;50.298;127.520;2022-08-19T16:29:37;1.88;;;0.60;;
55545;SDS011;44768;50.298;127.520;2022-08-19T16:34:39;2.33;;;0.70;;
55545;SDS011;44768;50.298;127.520;2022-08-19T16:39:41;7.38;;;0.90;;
55545;SDS011;44768;50.298;127.520;2022-08-19T16:49:44;2.65;;;0.60;;
55545;SDS011;44768;50.298;127.520;2022-08-19T16:54:45;0.73;;;0.70;;
55545;SDS011;44768;50.298;127.520;2022-08-19T16:59:47;0.82;;;0.60;;
55545;SDS011;44768;50.298;127.520;2022-08-19T17:04:51;1.77;;;0.50;;
55545;SDS011;44768;50.298;127.520;2022-08-19T17:14:54;2.58;;;0.55;;
55545;SDS011;44768;50.298;127.520;2022-08-19T17:19:57;2.85;;;0.60;;
55545;SDS011;44768;50.298;127.520;2022-08-19T17:25:00;1.33;;;0.60;;
55545;SDS011;44768;50.298;127.520;2022-08-19T17:30:02;5.22;;;0.55;;
55545;SDS011;44768;50.298;127.520;2022-08-19T17:35:04;3.35;;;0.60;;
55545;SDS011;44768;50.298;127.520;2022-08-19T17:40:06;4.05;;;1.10;;
55545;SDS011;44768;50.298;127.520;2022-08-19T17:45:08;1.73;;;1.08;;
55545;SDS011;44768;50.298;127.520;2022-08-19T17:50:11;3.05;;;0.80;;
55545;SDS011;44768;50.298;127.520;2022-08-19T17:55:15;1.05;;;0.70;;
55545;SDS011;44768;50.298;127.520;2022-08-19T18:00:16;3.15;;;0.68;;
55545;SDS011;44768;50.298;127.520;2022-08-19T18:05:19;1.90;;;0.70;;
55545;SDS011;44768;50.298;127.520;2022-08-19T18:10:22;6.18;;;0.77;;
55545;SDS011;44768;50.298;127.520;2022-08-19T18:15:23;3.80;;;1.08;;
55545;SDS011;44768;50.298;127.520;2022-08-19T18:20:26;0.82;;;0.55;;
55545;SDS011;44768;50.298;127.520;2022-08-19T18:25:28;1.65;;;1.00;;
55545;SDS011;44768;50.298;127.520;2022-08-19T18:30:30;0.82;;;0.60;;
55545;SDS011;44768;50.298;127.520;2022-08-19T18:35:34;5.38;;;0.63;;
55545;SDS011;44768;50.298;127.520;2022-08-19T18:40:38;0.60;;;0.60;;
55545;SDS011;44768;50.298;127.520;2022-08-19T18:45:58;1.10;;;0.52;;
55545;SDS011;44768;50.298;127.520;2022-08-19T18:51:17;1.48;;;0.70;;
55545;SDS011;44768;50.298;127.520;2022-08-19T18:56:19;1.80;;;0.80;;
55545;SDS011;44768;50.298;127.520;2022-08-19T19:01:24;2.38;;;0.75;;
55545;SDS011;44768;50.298;127.520;2022-08-19T19:06:28;2.97;;;1.00;;
55545;SDS011;44768;50.298;127.520;2022-08-19T19:11:32;2.70;;;0.60;;
55545;SDS011;44768;50.298;127.520;2022-08-19T19:16:33;2.42;;;0.80;;
55545;SDS011;44768;50.298;127.520;2022-08-19T19:21:35;1.70;;;0.75;;
55545;SDS011;44768;50.298;127.520;2022-08-19T19:26:37;2.33;;;0.90;;
55545;SDS011;44768;50.298;127.520;2022-08-19T19:31:38;1.40;;;0.75;;
55545;SDS011;44768;50.298;127.520;2022-08-19T19:36:40;0.65;;;0.63;;
55545;SDS011;44768;50.298;127.520;2022-08-19T19:41:41;2.03;;;0.60;;
55545;SDS011;44768;50.298;127.520;2022-08-19T19:46:43;0.70;;;0.57;;
55545;SDS011;44768;50.298;127.520;2022-08-19T19:51:44;0.50;;;0.50;;
55545;SDS011;44768;50.298;127.520;2022-08-19T20:01:50;1.23;;;0.70;;
55545;SDS011;44768;50.298;127.520;2022-08-19T20:06:51;0.65;;;0.65;;
55545;SDS011;44768;50.298;127.520;2022-08-19T20:11:53;0.70;;;0.60;;
55545;SDS011;44768;50.298;127.520;2022-08-19T20:16:55;0.52;;;0.52;;
55545;SDS011;44768;50.298;127.520;2022-08-19T20:21:58;0.77;;;0.57;;
55545;SDS011;44768;50.298;127.520;2022-08-19T20:27:01;0.50;;;0.50;;
55545;SDS011;44768;50.298;127.520;2022-08-19T20:32:03;4.60;;;0.52;;
55545;SDS011;44768;50.298;127.520;2022-08-19T20:37:06;0.85;;;0.50;;
55545;SDS011;44768;50.298;127.520;2022-08-19T20:42:08;0.85;;;0.60;;
55545;SDS011;44768;50.298;127.520;2022-08-19T20:47:09;0.95;;;0.70;;
55545;SDS011;44768;50.298;127.520;2022-08-19T20:52:11;0.93;;;0.77;;
55545;SDS011;44768;50.298;127.520;2022-08-19T20:57:13;1.10;;;0.60;;
55545;SDS011;44768;50.298;127.520;2022-08-19T21:02:14;4.57;;;0.80;;
55545;SDS011;44768;50.298;127.520;2022-08-19T21:07:15;0.70;;;0.60;;
55545;SDS011;44768;50.298;127.520;2022-08-19T21:12:17;3.22;;;0.77;;
55545;SDS011;44768;50.298;127.520;2022-08-19T21:17:18;1.38;;;0.98;;
55545;SDS011;44768;50.298;127.520;2022-08-19T21:22:20;1.25;;;0.73;;
55545;SDS011;44768;50.298;127.520;2022-08-19T21:27:23;1.85;;;0.80;;
55545;SDS011;44768;50.298;127.520;2022-08-19T21:32:24;2.78;;;1.00;;
55545;SDS011;44768;50.298;127.520;2022-08-19T21:37:25;2.65;;;0.68;;
55545;SDS011;44768;50.298;127.520;2022-08-19T21:42:26;1.13;;;0.70;;
55545;SDS011;44768;50.298;127.520;2022-08-19T21:47:28;2.05;;;0.73;;
55545;SDS011;44768;50.298;127.520;2022-08-19T21:52:29;1.83;;;0.70;;
55545;SDS011;44768;50.298;127.520;2022-08-19T21:57:31;3.15;;;0.80;;
55545;SDS011;44768;50.298;127.520;2022-08-19T22:02:33;3.40;;;0.63;;
55545;SDS011;44768;50.298;127.520;2022-08-19T22:07:34;0.90;;;0.80;;
55545;SDS011;44768;50.298;127.520;2022-08-19T22:12:37;0.60;;;0.52;;
55545;SDS011;44768;50.298;127.520;2022-08-19T22:17:39;1.10;;;0.90;;
55545;SDS011;44768;50.298;127.520;2022-08-19T22:22:46;2.83;;;0.98;;
55545;SDS011;44768;50.298;127.520;2022-08-19T22:27:49;1.40;;;0.95;;
55545;SDS011;44768;50.298;127.520;2022-08-19T22:32:53;2.05;;;0.70;;
55545;SDS011;44768;50.298;127.520;2022-08-19T22:37:54;4.45;;;0.80;;
55545;SDS011;44768;50.298;127.520;2022-08-19T22:42:56;2.05;;;0.95;;
55545;SDS011;44768;50.298;127.520;2022-08-19T22:48:01;2.55;;;0.80;;
55545;SDS011;44768;50.298;127.520;2022-08-19T22:53:03;3.60;;;0.70;;
55545;SDS011;44768;50.298;127.520;2022-08-19T22:58:07;4.55;;;1.50;;
55545;SDS011;44768;50.298;127.520;2022-08-19T23:03:08;3.13;;;2.25;;
55545;SDS011;44768;50.298;127.520;2022-08-19T23:08:09;1.35;;;0.73;;
55545;SDS011;44768;50.298;127.520;2022-08-19T23:13:10;1.42;;;0.90;;
55545;SDS011;44768;50.298;127.520;2022-08-19T23:23:13;4.25;;;0.90;;
55545;SDS011;44768;50.298;127.520;2022-08-19T23:28:23;1.67;;;0.95;;
55545;SDS011;44768;50.298;127.520;2022-08-19T23:33:43;1.00;;;0.75;;
55545;SDS011;44768;50.298;127.520;2022-08-19T23:38:45;2.70;;;1.02;;
55545;SDS011;44768;50.298;127.520;2022-08-19T23:43:47;1.90;;;0.80;;
55545;SDS011;44768;50.298;127.520;2022-08-19T23:48:48;2.72;;;1.00;;
55545;SDS011;44768;50.298;127.520;2022-08-19T23:53:49;2.47;;;0.93;;
55545;SDS011;44768;50.298;127.520;2022-08-19T23:58:51;1.65;;;1.08;;
